Bemus Point, NY

3:38 AM EDT on September 03, 2014 (GMT -0400)
Dutch Hollow Rd by VFW | Change Station
CLOSE
Current Station
Personal Weather Station
Location: Bemus Point, NY
Elevation: 1772 ft
Nearby Weather Stations

Elev 1772 ft 42.18 °N, 79.35 °W | Updated 11 seconds ago

Mostly Cloudy
Mostly Cloudy
61.6 °F
Feels Like 61.6 °F
N
2.0
Wind Variable Wind from West
Gusts 3.0 mph

Today
High -- | Low -- °F
--% Chance of Precip.
Yesterday
High -- | Low -- °F
Precip. -- in
6:44 AM 7:47 PM
First Quarter, 59% visible
Pressure 30.01 in
Visibility 10.0 miles
Clouds Mostly Cloudy 500 ft
Dew Point 60 °F
Humidity 95%
Rainfall 0.00 in
Snow Depth Not available.
UV 16.0 out of 12
Pollen 6.00 out of 12
Ozone Good
PM2.5 Good
Flu Activity Not available.
METAR KJHW 030735Z AUTO 25007KT 10SM BKN005 14/14 A3001 RMK AO1

More Conditions Fewer Conditions

Pressure 30.01 in
Visibility 10.0 miles
Clouds Mostly Cloudy 500 ft
Dew Point 60 °F
Humidity 95%
Rainfall 0.00 in
Snow Depth Not available.
UV 16.0 out of 12
Pollen 6.00 out of 12
Ozone Good
PM2.5 Good
Flu Activity Not available.
METAR KJHW 030735Z AUTO 25007KT 10SM BKN005 14/14 A3001 RMK AO1

More Conditions Fewer Conditions

10-Day Weather Forecast

Almanac

Astronomy

Sep. 03, 2014 Rise Set
Actual Time 6:44 AM EDT 7:47 PM EDT
Civil Twilight 6:16 AM EDT 8:16 PM EDT
Nautical Twilight 5:42 AM EDT 8:50 PM EDT
Astronomical Twilight 5:06 AM EDT 9:26 PM EDT
Moon 3:31 PM EDT 12:34 AM EDT
Length of Visible Light 14h 00m
Length of Day
13h 02m
Tomorrow will be 2m 44s shorter.
First Quarter, 59% of the Moon is Illuminated
Today
First Quarter
Sep 8
Full
Sep 15
Last Quarter
Sep 24
New
Oct 1
First Quarter

Today's Extremes

State Highs State Lows

Community

WunderPhotos

Upload Photos

1,749,891 photos uploaded!

Nearby

Air Quality

  Air Quality AQ Index Pollutant
Yesterday Good
OZONE
Yesterday Good
PM2.5
Current Good
PM2.5
Current Good
OZONE
Wednesday Good
PM2.5
Wednesday Good
OZONE

Snow Depth

Station Depth Elevation
No new snow has been reported.

Earthquake Activity

City Distance Mag. Time & Date
No recent earthquake activity has been reported nearby.
Minimum magnitude displayed is 2.5.

Coastal Water Temperatures

Place Temperature
Buffalo, NY 73.0 °F

Nearby Weather Stations